Time;durP1;ratioP1;P1;durP2;ratioP2;P2;SDS_P1;SDS_P2;PMS_P1;PMS_P2;Temp;Humidity;BMP_temperature;BMP_pressure;BME280_temperature;BME280_humidity;BME280_pressure;Samples;Min_cycle;Max_cycle;Signal;HPM_P1;HPM_P2
2023/10/21 00:17:56;;;;;;;8.90;6.75;;;;;;;21.73;60.91;98474.22;39963605;29;20061;-70
2023/10/21 00:37:56;;;;;;;9.90;7.05;;;;;;;21.69;61.23;98473.75;39962039;29;20046;-71
2023/10/21 00:57:57;;;;;;;10.18;6.47;;;;;;;21.70;60.99;98496.47;39960919;29;20148;-71
2023/10/21 01:17:57;;;;;;;9.23;6.28;;;;;;;21.55;61.04;98487.56;39950619;29;20078;-73
2023/10/21 01:37:58;;;;;;;8.55;6.40;;;;;;;21.66;60.84;98513.56;39947332;29;20054;-75
2023/10/21 01:57:58;;;;;;;7.93;6.03;;;;;;;21.66;60.90;98518.03;39949436;29;20130;-73
2023/10/21 02:18:04;;;;;;;7.32;5.82;;;;;;;21.62;61.43;98558.84;39948065;29;20454;-72
2023/10/21 02:38:05;;;;;;;6.80;5.57;;;;;;;21.55;61.38;98570.00;39976308;29;20527;-70
2023/10/21 02:58:05;;;;;;;7.90;6.00;;;;;;;21.65;61.01;98584.84;39973888;29;20054;-70
2023/10/21 03:18:06;;;;;;;7.88;5.55;;;;;;;21.62;60.98;98609.72;39972306;29;20058;-72
2023/10/21 03:38:06;;;;;;;7.38;5.63;;;;;;;21.62;61.21;98611.50;39968304;29;20519;-71
2023/10/21 03:58:07;;;;;;;7.35;5.68;;;;;;;21.60;60.91;98632.75;39967732;29;23572;-71
2023/10/21 04:18:07;;;;;;;6.88;5.13;;;;;;;21.55;61.05;98670.09;39966745;29;20132;-71
2023/10/21 04:38:10;;;;;;;6.25;5.28;;;;;;;21.59;60.72;98720.66;39952639;29;20046;-70
2023/10/21 04:58:10;;;;;;;8.40;5.05;;;;;;;21.53;60.68;98758.16;39936556;29;20050;-70
2023/10/21 05:18:10;;;;;;;6.43;4.95;;;;;;;21.62;60.63;98794.09;39943050;29;20045;-71
2023/10/21 05:38:11;;;;;;;6.95;5.10;;;;;;;21.51;60.57;98720.63;39945710;29;20046;-71
2023/10/21 05:58:12;;;;;;;10.05;3.70;;;;;;;21.43;61.32;98795.16;39949133;29;20062;-76
2023/10/21 06:18:12;;;;;;;8.80;4.35;;;;;;;21.80;61.67;98866.91;39945464;29;20416;-73
2023/10/21 06:38:14;;;;;;;10.40;4.13;;;;;;;21.88;61.80;98904.66;39938698;29;20054;-85
2023/10/21 06:58:15;;;;;;;10.07;3.90;;;;;;;21.90;61.29;98928.22;39938252;29;20065;-79
2023/10/21 07:18:16;;;;;;;7.95;2.75;;;;;;;21.71;61.57;98914.28;39932233;29;20068;-78
2023/10/21 07:38:18;;;;;;;7.43;3.25;;;;;;;21.78;61.20;98982.19;39948730;29;20046;-77
2023/10/21 07:58:19;;;;;;;7.38;2.92;;;;;;;21.83;60.94;99041.31;39920675;29;21053;-73
2023/10/21 08:18:19;;;;;;;7.43;3.30;;;;;;;21.91;61.09;99075.63;39958443;29;20054;-75
2023/10/21 08:38:19;;;;;;;8.20;3.20;;;;;;;21.99;61.29;99066.94;39952923;29;20046;-74
2023/10/21 08:58:28;;;;;;;10.07;3.10;;;;;;;21.95;61.40;99038.41;39961639;29;20130;-75
2023/10/21 09:18:28;;;;;;;8.52;3.33;;;;;;;21.74;61.27;99069.44;39969121;29;20056;-75
2023/10/21 09:38:35;;;;;;;7.72;3.17;;;;;;;22.09;61.60;99118.75;39956590;29;20112;-72
2023/10/21 09:58:37;;;;;;;9.05;2.97;;;;;;;22.10;61.58;99125.66;39932004;29;20058;-69
2023/10/21 10:18:46;;;;;;;6.60;3.30;;;;;;;22.19;61.18;99124.72;39939290;29;20050;-72
2023/10/21 10:38:46;;;;;;;8.57;3.08;;;;;;;22.26;60.96;99051.09;39954495;29;20050;-76
2023/10/21 10:58:47;;;;;;;7.25;2.90;;;;;;;22.19;61.51;99099.19;39995745;29;20069;-76
2023/10/21 11:18:49;;;;;;;7.95;3.22;;;;;;;22.46;63.32;99126.38;39954950;29;20054;-69
2023/10/21 11:38:51;;;;;;;17.70;5.53;;;;;;;22.11;66.94;99136.06;39953951;29;20575;-71
2023/10/21 12:39:44;;;;;;;6.50;2.30;;;;;;;22.03;61.88;99239.63;39965304;29;20141;-74
2023/10/21 12:59:44;;;;;;;8.30;2.10;;;;;;;21.80;61.16;99275.31;39952466;29;20050;-74
2023/10/21 13:19:46;;;;;;;6.18;2.03;;;;;;;22.03;60.13;99281.81;39939277;29;20050;-74
2023/10/21 13:39:47;;;;;;;7.68;2.00;;;;;;;22.08;60.67;99247.06;39960131;29;20133;-74
2023/10/21 13:59:47;;;;;;;3.83;1.88;;;;;;;22.08;61.18;99218.06;39956939;29;20050;-73
2023/10/21 14:19:48;;;;;;;9.48;2.15;;;;;;;22.14;61.86;99208.72;39947688;29;20061;-71
2023/10/21 14:39:48;;;;;;;8.65;2.15;;;;;;;22.22;62.17;99216.69;39949567;29;20050;-77
2023/10/21 14:59:49;;;;;;;12.35;3.88;;;;;;;22.29;63.62;99225.66;39951791;29;20050;-73
2023/10/21 15:19:50;;;;;;;12.02;3.72;;;;;;;22.10;64.06;99221.38;39918843;29;20062;-75
2023/10/21 15:39:51;;;;;;;21.20;4.57;;;;;;;22.09;63.42;99232.91;39954603;29;20046;-67
2023/10/21 15:59:54;;;;;;;15.75;4.30;;;;;;;22.07;63.29;99267.34;39968748;29;20050;-69
2023/10/21 16:19:55;;;;;;;17.25;4.30;;;;;;;22.03;63.20;99286.25;39971014;29;20057;-68
2023/10/21 16:39:57;;;;;;;15.65;3.97;;;;;;;21.91;62.83;99315.47;39972633;29;20427;-67
2023/10/21 16:59:58;;;;;;;10.18;4.00;;;;;;;21.91;63.35;99352.38;39968370;29;20050;-68
2023/10/21 17:19:58;;;;;;;8.27;3.75;;;;;;;21.92;63.06;99358.44;39965409;29;20050;-68
2023/10/21 17:40:00;;;;;;;8.65;3.25;;;;;;;21.87;62.89;99373.88;39961442;29;20099;-68
2023/10/21 18:00:03;;;;;;;7.40;3.25;;;;;;;21.85;63.17;99381.09;39958003;29;20085;-67
2023/10/21 18:20:09;;;;;;;6.28;2.80;;;;;;;21.67;62.88;99326.56;39942490;29;20054;-68
2023/10/21 18:40:10;;;;;;;6.65;2.92;;;;;;;22.01;62.39;99364.66;39930511;29;20091;-70
2023/10/21 19:00:12;;;;;;;21.85;6.57;;;;;;;22.50;65.43;99335.28;39919314;29;20939;-68
2023/10/21 19:20:12;;;;;;;22.60;6.93;;;;;;;22.48;66.00;99332.78;39918657;29;20142;-69
2023/10/21 19:40:13;;;;;;;21.02;7.15;;;;;;;22.18;66.04;99323.44;39929351;29;20061;-71
2023/10/21 20:00:15;;;;;;;18.90;7.40;;;;;;;22.15;65.55;99294.75;39952640;29;20079;-67
2023/10/21 20:20:16;;;;;;;18.33;6.50;;;;;;;22.06;66.48;99246.41;39947988;29;20568;-67
2023/10/21 20:40:16;;;;;;;16.98;6.03;;;;;;;22.03;66.76;99257.25;39942596;29;20065;-68
2023/10/21 21:00:17;;;;;;;11.43;4.60;;;;;;;22.01;66.02;99267.13;39957604;29;20050;-68
2023/10/21 21:20:18;;;;;;;13.50;4.78;;;;;;;21.98;65.85;99257.69;39948176;29;20047;-68
2023/10/21 21:40:19;;;;;;;12.90;4.63;;;;;;;21.77;65.70;99209.75;39954070;29;20520;-68
2023/10/21 22:20:53;;;;;;;8.13;3.88;;;;;;;21.86;65.22;99199.13;39897045;29;20058;-68
2023/10/21 22:40:54;;;;;;;8.77;3.85;;;;;;;21.88;65.37;99214.78;39956941;29;20046;-68
2023/10/21 23:00:57;;;;;;;7.65;3.70;;;;;;;21.85;65.89;99229.09;39966127;29;20488;-73
2023/10/21 23:20:58;;;;;;;7.22;3.42;;;;;;;21.86;65.53;99206.19;39980026;29;20149;-72
2023/10/21 23:40:59;;;;;;;6.05;3.15;;;;;;;21.82;65.31;99181.16;39978920;29;20512;-72
